Scroll down
FLIGHT INFORMATION
Alaska Airlines

ASA642

At Arrival Gate

KSEA
 KDEN
DATE: 2021-05-26
GATE:  -
GATE DEPARTURE: 20:35
TAKEOFF: 20:48
DATE: 2021-05-26
GATE: A37
LANDING: 23:01
GATE ARRIVAL: 23:13
FLIGHT DATA
Crew: 
Speed: 
467 kts
Altitude: 
35,015 ft
Stage Length: 
888.4 nm
Block Time: 
2.5 hrs
Flight Time: 
2.2 hrs
Fuel Used: 
14,599 lb
Cleared Route: KSEA SEA NORMY BLUIT MWH KU87M IDA MJANE KDEN
TRACK DATA
50,000 ft 1,000 kts
AIRCRAFT INFO AND CUMULATIVE STATS
Aircraft Type: 
B739SSW
Registration: 
SELCAL: 
MSN/LN: 
33680 / 1380
Operator: 
Total Flights: 
2
Total Block Time: 
4.8 hrs
Total Flight Time: 
4.2 hrs
Total Fuel Used: 
28,684 lb
DATALINK LOG | Newest first | Current as of: 2022-10-04 20:28:01
LABEL SEQUENCE CONTENT Dn/Up
5Z172926 MAY 21 23:17:00z / FLT DECK GOOD / ACF POS GOOD / GRND SERVICES GOOD / MAINT GOOD▼ Dn
QD142623:13 4.9▼ Dn
QC021623:01▼ Dn
GA4510GATE A37▲ Up
GR4500KDEN 23:05 MAAS 00 YP/UM 00/01 WCHR/S/C 00/01/00 HI-VAL NO DIPL/VIP NO▼ Dn
2U1046KDEN 262153Z 32011KT 10SM FEW090 SCT120 BKN200 23/12 A2998 RMK AO2 SLP082 T02330117▲ Up
2S1028KDEN▼ Dn
QB491220:48▼ Dn
QA355920:35 19.6▼ Dn
2U2241KSEA 261953Z 23009KT 10SM FEW025 SCT038 BKN250 16/06 A3013 RMK AO2 SLP210 T01560056▲ Up
2S2129KSEA▼ Dn
A31735CLEARED TO KDEN VIA SEA NORMY J90 MWH KU87M IDA MJANE FLATI2. SQUAWK 2575.▲ Up
Q01624[LINK ACK]▲ Up
Q01624[LINK TEST]▼ Dn


AIRCRAFT HISTORY
FLIGHT DATE FLIGHT NO. ORIGIN DESTINATION CLEARED ROUTE BLOCK TIME FLIGHT TIME FUEL USED PILOT
2021-05-26ASA642KSEA KDEN KSEA SEA NORMY BLUIT MWH KU87M IDA MJANE KDEN2.5 hrs2.2 hrs14,599 lbJames W.
2020-08-13ASA1813KLAS KSEA KLAS OAL LOMIA LKV KSEA2.3 hrs2 hrs14,085 lbKurt Kalbfleisch